LFSL - Brive , Souillac,France,Corrèze Lot
Mise à jour: Wed, 16-Jan-2019 20:00 CET
Overcast
Overcast
 Wind from S
Vent: S 6 km/h
Température: 7°C
Point de Rosée: 4°C
Humidité: 81%
Barometre: 1015 hPa
Nuage: Overcast
Visibilité: 10 km
2019/01/16 19:00 LFSL 161900Z AUTO 18003KT 9999 OVC038 07/04 Q1015 NOSIG